Time;durP1;ratioP1;P1;durP2;ratioP2;P2;SDS_P1;SDS_P2;PMS_P1;PMS_P2;Temp;Humidity;BMP_temperature;BMP_pressure;BME280_temperature;BME280_humidity;BME280_pressure;Samples;Min_cycle;Max_cycle;Signal;HPM_P1;HPM_P2
2024/02/17 00:02:07;;;;;;;11.20;6.80;;;9.50;99.90;;;;;;5045382;28;20115;-49
2024/02/17 00:04:33;;;;;;;8.05;5.68;;;9.50;99.90;;;;;;5041673;28;20029;-50
2024/02/17 00:06:58;;;;;;;10.45;7.43;;;9.50;99.90;;;;;;5062713;28;20033;-46
2024/02/17 00:09:24;;;;;;;12.68;7.03;;;9.40;99.90;;;;;;5063435;28;20041;-45
2024/02/17 00:11:49;;;;;;;12.07;8.20;;;9.40;99.90;;;;;;5063903;28;20020;-50
2024/02/17 00:14:15;;;;;;;14.20;8.13;;;9.40;99.90;;;;;;5062409;28;20092;-45
2024/02/17 00:16:41;;;;;;;11.65;7.53;;;9.30;99.90;;;;;;5064235;28;20047;-47
2024/02/17 00:19:06;;;;;;;13.45;8.52;;;9.30;99.90;;;;;;5063432;28;20031;-48
2024/02/17 00:21:32;;;;;;;13.32;7.97;;;9.20;99.90;;;;;;5061929;28;20037;-48
2024/02/17 00:23:58;;;;;;;11.77;8.13;;;9.10;99.90;;;;;;5062524;28;20024;-46
2024/02/17 00:26:23;;;;;;;15.45;8.13;;;9.00;99.90;;;;;;5064131;28;20029;-48
2024/02/17 00:28:51;;;;;;;14.73;7.70;;;9.00;99.90;;;;;;5064511;28;20199;-47
2024/02/17 00:31:18;;;;;;;9.55;6.63;;;9.00;99.90;;;;;;5060687;28;20025;-55
2024/02/17 00:33:44;;;;;;;10.40;6.90;;;9.00;99.90;;;;;;5061645;28;20024;-48
2024/02/17 00:36:09;;;;;;;12.25;7.68;;;8.90;99.90;;;;;;5062427;28;20028;-46
2024/02/17 00:38:35;;;;;;;12.02;8.38;;;8.90;99.90;;;;;;5062198;28;20032;-46
2024/02/17 00:41:02;;;;;;;15.80;7.82;;;8.80;99.90;;;;;;5061319;28;20029;-51
2024/02/17 00:43:28;;;;;;;16.50;8.98;;;8.80;99.90;;;;;;5063343;28;20125;-50
2024/02/17 00:45:53;;;;;;;18.30;8.82;;;8.80;99.90;;;;;;5063715;28;20086;-49
2024/02/17 00:48:19;;;;;;;15.35;9.85;;;8.70;99.90;;;;;;5062429;28;20024;-49
2024/02/17 00:50:45;;;;;;;16.83;10.70;;;8.70;99.90;;;;;;5059610;28;20013;-50
2024/02/17 00:53:10;;;;;;;18.55;10.98;;;8.70;99.90;;;;;;5060917;28;20027;-50
2024/02/17 00:55:36;;;;;;;20.42;10.77;;;8.50;99.90;;;;;;5073202;28;20024;-54
2024/02/17 00:58:02;;;;;;;19.77;11.02;;;8.50;99.90;;;;;;5080066;28;20515;-51
2024/02/17 01:00:28;;;;;;;18.00;9.98;;;8.50;99.90;;;;;;5082070;28;20024;-46
2024/02/17 01:02:55;;;;;;;22.35;11.18;;;8.40;99.90;;;;;;5081542;28;20123;-48
2024/02/17 01:05:21;;;;;;;19.77;11.80;;;8.40;99.90;;;;;;5083652;28;20109;-50
2024/02/17 01:07:46;;;;;;;16.58;10.40;;;8.30;99.90;;;;;;5084799;28;20070;-50
2024/02/17 01:10:13;;;;;;;17.77;9.95;;;8.30;99.90;;;;;;5081061;28;20071;-47
2024/02/17 01:12:39;;;;;;;20.77;10.52;;;8.30;99.90;;;;;;5083549;28;20047;-51
2024/02/17 01:15:05;;;;;;;17.35;9.93;;;8.30;99.90;;;;;;5080314;28;20594;-47
2024/02/17 01:17:31;;;;;;;17.88;9.40;;;8.20;99.90;;;;;;5077496;28;20067;-47
2024/02/17 01:19:56;;;;;;;20.60;9.93;;;8.30;99.90;;;;;;5076808;28;20087;-51
2024/02/17 01:22:22;;;;;;;10.93;7.70;;;8.20;99.90;;;;;;5081323;28;20024;-51
2024/02/17 01:24:47;;;;;;;20.27;9.68;;;8.20;99.90;;;;;;5081547;28;20035;-51
2024/02/17 01:27:13;;;;;;;15.38;9.30;;;8.20;99.90;;;;;;5077548;28;20063;-52
2024/02/17 01:29:38;;;;;;;17.88;7.65;;;8.20;99.90;;;;;;5078367;28;20480;-51
2024/02/17 01:32:04;;;;;;;14.27;7.78;;;8.20;99.90;;;;;;5079035;28;20026;-50
2024/02/17 01:34:30;;;;;;;11.63;7.43;;;8.20;99.90;;;;;;5076700;28;20468;-46
2024/02/17 01:36:55;;;;;;;11.55;6.40;;;8.10;99.90;;;;;;5078320;28;20019;-49
2024/02/17 01:39:23;;;;;;;15.10;6.10;;;8.10;99.90;;;;;;5077972;28;20614;-51
2024/02/17 01:41:49;;;;;;;6.03;4.35;;;8.10;99.90;;;;;;5078224;28;20024;-50
2024/02/17 01:44:14;;;;;;;5.03;3.35;;;8.00;99.90;;;;;;5077366;28;20655;-46
2024/02/17 01:46:41;;;;;;;7.25;3.60;;;8.00;99.90;;;;;;5081187;28;20032;-49
2024/02/17 01:49:07;;;;;;;6.80;3.35;;;7.90;99.90;;;;;;5078749;28;20028;-49
2024/02/17 01:51:34;;;;;;;6.05;3.65;;;7.90;99.90;;;;;;5080750;28;20032;-51
2024/02/17 01:53:59;;;;;;;6.00;3.40;;;7.80;99.90;;;;;;5072971;28;20021;-48
2024/02/17 01:56:26;;;;;;;5.68;3.60;;;7.80;99.90;;;;;;5077525;28;20103;-50
2024/02/17 01:58:54;;;;;;;3.55;2.90;;;7.70;99.90;;;;;;5075636;28;20392;-52
2024/02/17 02:01:20;;;;;;;4.15;3.40;;;7.70;99.90;;;;;;5077602;28;20035;-48
2024/02/17 02:03:46;;;;;;;5.75;3.33;;;7.70;99.90;;;;;;5056702;28;20124;-48
2024/02/17 02:06:12;;;;;;;4.85;3.35;;;7.60;99.90;;;;;;5075724;28;20495;-47
2024/02/17 02:08:38;;;;;;;3.95;2.70;;;7.60;99.90;;;;;;5076781;28;20024;-51
2024/02/17 02:11:05;;;;;;;5.97;2.97;;;7.60;99.90;;;;;;5078262;28;20038;-47
2024/02/17 02:13:30;;;;;;;7.78;3.42;;;7.60;99.90;;;;;;5080131;28;20032;-51
2024/02/17 02:15:56;;;;;;;3.85;2.88;;;7.60;99.90;;;;;;5079217;28;20038;-49
2024/02/17 02:18:24;;;;;;;5.82;2.95;;;7.60;99.90;;;;;;5078975;28;20024;-51
2024/02/17 02:20:50;;;;;;;4.20;2.80;;;7.60;99.90;;;;;;5075848;28;20043;-52
2024/02/17 02:23:16;;;;;;;5.93;2.53;;;7.60;99.90;;;;;;5080441;28;20036;-52
2024/02/17 02:25:56;;;;;;;3.78;2.03;;;7.60;99.90;;;;;;5077874;28;20032;-49
2024/02/17 02:28:22;;;;;;;2.53;1.95;;;7.60;99.90;;;;;;5078626;28;20035;-48
2024/02/17 02:30:50;;;;;;;2.08;1.60;;;7.50;99.90;;;;;;5083120;28;20025;-49
2024/02/17 02:33:16;;;;;;;2.78;1.85;;;7.50;99.90;;;;;;5084360;28;20458;-48
2024/02/17 02:35:41;;;;;;;3.33;2.08;;;7.50;99.90;;;;;;5082904;28;20049;-52
2024/02/17 02:38:07;;;;;;;1.73;1.20;;;7.50;99.90;;;;;;5081916;28;20024;-50
2024/02/17 02:40:32;;;;;;;1.85;1.75;;;7.50;99.90;;;;;;5083879;28;20099;-53
2024/02/17 02:42:58;;;;;;;1.63;1.30;;;7.40;99.90;;;;;;5082252;28;20127;-51
2024/02/17 02:45:24;;;;;;;1.85;1.38;;;7.40;99.90;;;;;;5082099;28;20625;-49
2024/02/17 02:47:50;;;;;;;1.42;1.33;;;7.40;99.90;;;;;;5081072;28;20029;-47
2024/02/17 02:50:16;;;;;;;3.05;1.00;;;7.40;99.90;;;;;;5068744;28;20516;-52
2024/02/17 02:52:41;;;;;;;1.92;1.48;;;7.40;99.90;;;;;;5077819;28;20016;-51
2024/02/17 02:55:07;;;;;;;1.95;1.17;;;7.40;99.90;;;;;;5080309;28;20024;-52
2024/02/17 02:57:33;;;;;;;2.03;1.40;;;7.30;99.90;;;;;;5082379;28;20107;-52
2024/02/17 02:59:59;;;;;;;1.70;1.35;;;7.30;99.90;;;;;;5079993;28;20037;-52
2024/02/17 03:02:25;;;;;;;1.42;1.33;;;7.30;99.90;;;;;;5081618;28;20035;-48
2024/02/17 03:04:54;;;;;;;1.88;1.48;;;7.30;99.90;;;;;;5080756;28;20024;-48
2024/02/17 03:07:20;;;;;;;1.75;1.65;;;7.30;99.90;;;;;;5065410;28;20032;-48
2024/02/17 03:09:46;;;;;;;2.15;1.58;;;7.20;99.90;;;;;;5081431;28;20030;-51
2024/02/17 03:12:11;;;;;;;1.80;1.40;;;7.20;99.90;;;;;;5079618;28;20396;-47
2024/02/17 03:14:39;;;;;;;1.40;1.30;;;7.10;99.90;;;;;;5082553;28;20116;-51
2024/02/17 03:17:05;;;;;;;3.47;1.33;;;7.00;99.90;;;;;;5082647;28;20101;-50
2024/02/17 03:19:31;;;;;;;2.47;1.27;;;6.90;99.90;;;;;;5081393;28;20063;-48
2024/02/17 03:21:57;;;;;;;0.80;0.75;;;6.90;99.90;;;;;;5085068;28;20056;-48
2024/02/17 03:24:23;;;;;;;2.42;0.70;;;6.80;99.90;;;;;;5083899;28;20508;-49
2024/02/17 03:26:49;;;;;;;1.75;0.68;;;6.80;99.90;;;;;;5085012;28;20024;-50
2024/02/17 03:29:15;;;;;;;0.63;0.57;;;6.80;99.90;;;;;;5083128;28;20027;-50
2024/02/17 03:31:41;;;;;;;0.77;0.40;;;6.80;99.90;;;;;;5081207;28;20492;-46
2024/02/17 03:34:06;;;;;;;0.88;0.40;;;6.80;99.90;;;;;;5084156;28;20031;-47
2024/02/17 03:36:35;;;;;;;1.23;0.22;;;6.80;99.90;;;;;;5079857;28;20028;-49
2024/02/17 03:39:07;;;;;;;0.43;0.20;;;6.80;99.90;;;;;;5083658;28;20119;-52
2024/02/17 03:41:33;;;;;;;0.60;0.28;;;6.70;99.90;;;;;;5083150;28;20667;-48
2024/02/17 03:43:58;;;;;;;0.40;0.40;;;6.80;99.90;;;;;;5084801;28;20036;-47
2024/02/17 03:46:24;;;;;;;1.80;0.40;;;6.80;99.90;;;;;;5066185;28;20055;-45
2024/02/17 03:48:50;;;;;;;0.30;0.25;;;6.80;99.90;;;;;;5085490;28;20680;-48
2024/02/17 03:51:16;;;;;;;0.38;0.38;;;6.70;99.90;;;;;;5081553;28;20036;-51
2024/02/17 03:53:41;;;;;;;0.38;0.35;;;6.70;99.90;;;;;;5063339;28;20400;-48
2024/02/17 03:56:07;;;;;;;0.20;0.20;;;6.80;99.90;;;;;;5081171;28;20625;-49
2024/02/17 03:58:32;;;;;;;0.88;0.45;;;6.80;99.90;;;;;;5063268;28;20107;-49
2024/02/17 04:00:58;;;;;;;1.95;0.32;;;6.80;99.90;;;;;;5083291;28;20028;-48
2024/02/17 04:03:24;;;;;;;0.30;0.20;;;6.70;99.90;;;;;;5082166;28;20043;-51
2024/02/17 04:05:50;;;;;;;2.63;0.50;;;6.70;99.90;;;;;;5082040;28;20035;-50
2024/02/17 04:08:16;;;;;;;1.35;0.45;;;6.80;99.90;;;;;;5083609;28;20403;-49
2024/02/17 04:10:42;;;;;;;0.82;0.40;;;6.80;99.90;;;;;;5083709;28;20024;-52
2024/02/17 04:13:08;;;;;;;0.80;0.52;;;6.70;99.90;;;;;;5084687;28;20020;-48
2024/02/17 04:15:33;;;;;;;2.10;0.60;;;6.70;99.90;;;;;;5079293;28;20131;-48
2024/02/17 04:18:00;;;;;;;1.00;0.57;;;6.70;99.90;;;;;;5083548;28;20039;-48
2024/02/17 04:20:25;;;;;;;1.20;0.70;;;6.60;99.90;;;;;;5076858;28;20028;-50
2024/02/17 04:22:51;;;;;;;2.67;1.00;;;6.60;99.90;;;;;;5082276;28;20058;-47
2024/02/17 04:25:16;;;;;;;1.48;0.80;;;6.60;99.90;;;;;;5080820;28;20503;-49
2024/02/17 04:27:42;;;;;;;0.80;0.73;;;6.50;99.90;;;;;;5083492;28;20054;-48
2024/02/17 04:30:08;;;;;;;2.83;0.75;;;6.50;99.90;;;;;;5082983;28;20032;-50
2024/02/17 04:32:34;;;;;;;1.35;1.10;;;6.50;99.90;;;;;;5061210;28;20068;-48
2024/02/17 04:34:59;;;;;;;3.08;1.00;;;6.50;99.90;;;;;;5083939;28;20028;-46
2024/02/17 04:37:25;;;;;;;1.75;0.88;;;6.40;99.90;;;;;;5062095;28;20485;-48
2024/02/17 04:39:50;;;;;;;3.58;1.17;;;6.40;99.90;;;;;;5082509;28;20028;-47
2024/02/17 04:42:16;;;;;;;2.17;0.88;;;6.30;99.90;;;;;;5082084;28;20531;-46
2024/02/17 04:44:42;;;;;;;1.67;0.82;;;6.30;99.90;;;;;;5066079;28;20627;-48
2024/02/17 04:47:07;;;;;;;1.40;0.45;;;6.30;99.90;;;;;;5082239;28;20028;-48
2024/02/17 04:49:34;;;;;;;0.85;0.55;;;6.20;99.90;;;;;;5083644;28;20515;-46
2024/02/17 04:52:00;;;;;;;2.38;0.57;;;6.20;99.90;;;;;;5064212;28;20499;-46
2024/02/17 04:54:25;;;;;;;2.60;1.10;;;6.30;99.90;;;;;;5082905;28;20028;-48
2024/02/17 04:56:51;;;;;;;2.80;0.77;;;6.20;99.90;;;;;;5083051;28;20028;-51
2024/02/17 04:59:16;;;;;;;3.97;0.88;;;6.20;99.90;;;;;;5084729;28;20419;-48
2024/02/17 05:01:44;;;;;;;0.88;0.57;;;6.20;99.90;;;;;;5084510;28;20097;-47
2024/02/17 05:04:10;;;;;;;4.88;0.60;;;6.20;99.90;;;;;;5083585;28;20074;-46
2024/02/17 05:06:35;;;;;;;1.83;0.52;;;6.20;99.90;;;;;;5081841;28;20036;-48
2024/02/17 05:09:01;;;;;;;0.85;0.35;;;6.20;99.90;;;;;;5078254;28;20426;-49
2024/02/17 05:11:27;;;;;;;5.45;0.70;;;6.10;99.90;;;;;;5063365;28;20024;-49
2024/02/17 05:13:52;;;;;;;1.65;0.45;;;6.10;99.90;;;;;;5079761;28;20031;-49
2024/02/17 05:16:18;;;;;;;1.75;0.40;;;6.10;99.90;;;;;;5082040;28;20020;-48
2024/02/17 05:18:43;;;;;;;3.42;0.57;;;6.10;99.90;;;;;;5081457;28;20055;-47
2024/02/17 05:21:10;;;;;;;1.92;0.45;;;6.10;99.90;;;;;;5081993;28;20028;-52
2024/02/17 05:23:36;;;;;;;1.15;0.20;;;6.10;99.90;;;;;;5080477;28;20162;-48
2024/02/17 05:26:01;;;;;;;1.80;0.20;;;6.00;99.90;;;;;;5083787;28;20509;-51
2024/02/17 05:28:27;;;;;;;2.38;0.52;;;6.00;99.90;;;;;;5082166;28;20024;-47
2024/02/17 05:30:54;;;;;;;5.10;0.70;;;6.10;99.90;;;;;;5081158;28;20032;-53
2024/02/17 05:33:19;;;;;;;0.38;0.32;;;6.00;99.90;;;;;;5083293;28;20039;-48
2024/02/17 05:35:46;;;;;;;1.05;0.38;;;6.00;99.90;;;;;;5082935;28;20020;-50
2024/02/17 05:38:12;;;;;;;1.90;0.40;;;6.00;99.90;;;;;;5081230;28;20034;-49
2024/02/17 05:40:38;;;;;;;1.13;0.40;;;5.90;99.90;;;;;;5081808;28;20024;-50
2024/02/17 05:43:04;;;;;;;2.03;0.68;;;5.90;99.90;;;;;;5082726;28;20526;-51
2024/02/17 05:45:29;;;;;;;1.85;0.30;;;5.90;99.90;;;;;;5078055;28;20039;-49
2024/02/17 05:47:55;;;;;;;2.50;0.60;;;5.90;99.90;;;;;;5082390;28;20038;-50
2024/02/17 05:50:21;;;;;;;0.52;0.30;;;5.90;99.90;;;;;;5081619;28;20028;-50
2024/02/17 05:52:49;;;;;;;1.27;0.30;;;5.90;99.90;;;;;;5059095;28;20032;-50
2024/02/17 05:55:16;;;;;;;2.30;0.50;;;5.90;99.90;;;;;;5081675;23;20040;-58
2024/02/17 05:57:41;;;;;;;2.72;0.47;;;5.90;99.90;;;;;;5004469;28;20084;-57
2024/02/17 06:00:08;;;;;;;2.05;0.63;;;5.90;99.90;;;;;;5007131;28;20796;-63
2024/02/17 06:02:34;;;;;;;2.45;0.55;;;5.90;99.90;;;;;;5006103;28;20620;-58
2024/02/17 06:05:03;;;;;;;2.20;0.73;;;5.90;99.90;;;;;;5001521;28;20101;-55
2024/02/17 06:07:28;;;;;;;5.88;1.50;;;5.90;99.90;;;;;;4988723;28;20033;-56
2024/02/17 06:09:54;;;;;;;3.00;0.80;;;5.90;99.90;;;;;;4985018;28;20026;-57
2024/02/17 06:12:20;;;;;;;4.15;1.08;;;5.90;99.90;;;;;;4990760;28;20490;-58
2024/02/17 06:14:45;;;;;;;6.57;1.00;;;5.90;99.90;;;;;;4985980;28;20034;-58
2024/02/17 06:17:22;;;;;;;1.90;0.65;;;5.90;99.90;;;;;;4987013;28;20027;-55
2024/02/17 06:22:32;;;;;;;5.07;0.85;;;5.90;99.90;;;;;;4987410;28;20473;-58
2024/02/17 06:24:58;;;;;;;4.32;1.08;;;5.90;99.90;;;;;;4985020;28;20030;-57
2024/02/17 06:27:24;;;;;;;4.45;1.50;;;5.90;99.90;;;;;;4988776;28;20022;-59
2024/02/17 06:29:50;;;;;;;4.35;1.00;;;5.90;99.90;;;;;;4986108;28;20014;-61
2024/02/17 06:32:16;;;;;;;3.80;1.17;;;5.90;99.90;;;;;;4983111;28;20041;-58
2024/02/17 06:34:41;;;;;;;4.10;1.30;;;5.90;99.90;;;;;;4989152;28;20568;-57
2024/02/17 06:37:07;;;;;;;3.20;1.08;;;5.90;99.90;;;;;;4982503;28;20027;-58
2024/02/17 06:39:34;;;;;;;4.38;1.13;;;5.90;99.90;;;;;;4987486;28;20027;-59
2024/02/17 06:41:59;;;;;;;6.07;1.70;;;5.90;99.90;;;;;;4988249;28;20569;-58
2024/02/17 06:44:27;;;;;;;5.70;1.10;;;5.90;99.90;;;;;;4985643;28;20109;-59
2024/02/17 06:46:53;;;;;;;4.68;1.42;;;5.90;99.90;;;;;;4985530;28;20022;-59
2024/02/17 06:49:19;;;;;;;8.65;1.45;;;5.90;99.90;;;;;;4983922;28;20674;-57
2024/02/17 06:51:45;;;;;;;10.77;2.28;;;5.90;99.90;;;;;;4989191;28;20037;-57
2024/02/17 06:54:10;;;;;;;5.13;1.58;;;5.90;99.90;;;;;;4986460;28;20026;-58
2024/02/17 06:56:36;;;;;;;4.40;1.63;;;5.90;99.90;;;;;;4986988;28;20521;-56
2024/02/17 06:59:02;;;;;;;5.80;1.30;;;6.00;99.90;;;;;;4985435;28;20704;-57
2024/02/17 07:01:27;;;;;;;4.95;1.20;;;5.90;99.90;;;;;;4984349;28;20110;-59
2024/02/17 07:03:53;;;;;;;8.98;1.33;;;5.90;99.90;;;;;;4985521;28;20138;-56
2024/02/17 07:06:19;;;;;;;7.90;1.35;;;5.90;99.90;;;;;;4984264;28;20116;-56
2024/02/17 07:08:48;;;;;;;13.40;2.20;;;6.00;99.90;;;;;;4989267;28;20100;-57
2024/02/17 07:11:17;;;;;;;11.73;1.75;;;6.00;99.90;;;;;;4986331;28;20030;-59
2024/02/17 07:13:43;;;;;;;8.93;1.40;;;6.00;99.90;;;;;;4990188;28;20125;-58
2024/02/17 07:16:09;;;;;;;8.27;1.27;;;6.00;99.90;;;;;;4991082;28;20118;-59
2024/02/17 07:18:37;;;;;;;10.77;1.83;;;5.90;99.90;;;;;;4989336;28;20129;-59
2024/02/17 07:21:03;;;;;;;8.85;1.48;;;5.90;99.90;;;;;;4990835;28;20117;-59
2024/02/17 07:23:30;;;;;;;10.57;2.33;;;5.90;99.90;;;;;;4991087;28;20034;-58
2024/02/17 07:25:56;;;;;;;6.63;1.63;;;5.90;99.90;;;;;;4990565;28;20030;-58
2024/02/17 07:28:22;;;;;;;10.73;2.33;;;5.90;99.90;;;;;;4990155;28;20508;-57
2024/02/17 07:30:47;;;;;;;5.45;1.42;;;5.90;99.90;;;;;;4995232;28;20022;-59
2024/02/17 07:33:14;;;;;;;5.28;1.33;;;5.90;99.90;;;;;;4988378;28;20023;-58
2024/02/17 07:35:42;;;;;;;10.88;1.88;;;5.90;99.90;;;;;;4994960;28;20038;-57
2024/02/17 07:38:08;;;;;;;9.05;1.13;;;5.90;99.90;;;;;;4987505;28;20018;-59
2024/02/17 07:40:34;;;;;;;8.25;1.27;;;5.90;99.90;;;;;;4993265;28;20046;-59
2024/02/17 07:42:59;;;;;;;7.45;1.83;;;6.00;99.90;;;;;;4989027;28;20495;-57
2024/02/17 07:45:26;;;;;;;13.30;2.78;;;6.00;99.90;;;;;;4990149;28;20030;-57
2024/02/17 07:47:51;;;;;;;9.93;2.03;;;6.00;99.90;;;;;;4991089;28;20037;-59
2024/02/17 07:50:17;;;;;;;9.30;1.85;;;6.00;99.90;;;;;;4979225;28;20034;-60
2024/02/17 07:52:43;;;;;;;10.10;1.52;;;6.10;99.90;;;;;;4991452;28;20018;-60
2024/02/17 07:55:08;;;;;;;13.38;2.25;;;6.10;99.90;;;;;;4995935;28;20405;-58
2024/02/17 07:57:35;;;;;;;9.77;2.28;;;6.10;99.90;;;;;;4994643;28;20026;-58
2024/02/17 08:00:02;;;;;;;12.85;1.75;;;6.10;99.90;;;;;;4977823;28;20124;-60
2024/02/17 08:02:28;;;;;;;12.40;3.30;;;6.10;99.90;;;;;;4990360;28;20056;-59
2024/02/17 08:04:55;;;;;;;15.90;1.45;;;6.10;99.90;;;;;;4985849;28;20054;-58
2024/02/17 08:07:20;;;;;;;11.88;1.77;;;6.10;99.90;;;;;;4991589;28;20033;-58
2024/02/17 08:09:48;;;;;;;6.85;1.77;;;6.10;99.90;;;;;;4990681;28;20038;-60
2024/02/17 08:12:14;;;;;;;9.95;1.65;;;6.10;99.90;;;;;;4991702;28;20026;-59
2024/02/17 08:14:40;;;;;;;9.15;1.95;;;6.10;99.90;;;;;;4989431;28;20031;-58
2024/02/17 08:17:07;;;;;;;10.50;1.50;;;6.10;99.90;;;;;;4988110;28;20105;-59
2024/02/17 08:19:32;;;;;;;6.50;1.83;;;6.10;99.90;;;;;;4993771;28;20049;-59
2024/02/17 08:21:58;;;;;;;11.45;1.63;;;6.10;99.90;;;;;;4986010;28;20057;-60
2024/02/17 08:24:23;;;;;;;11.45;2.28;;;6.10;99.90;;;;;;4991045;28;20022;-57
2024/02/17 08:26:49;;;;;;;5.90;1.35;;;6.10;99.90;;;;;;4990981;28;20049;-58
2024/02/17 08:29:15;;;;;;;5.80;1.60;;;6.10;99.90;;;;;;4993727;28;20109;-59
2024/02/17 08:31:48;;;;;;;17.60;3.05;;;6.20;99.90;;;;;;4986629;28;20094;-56
2024/02/17 08:34:14;;;;;;;8.00;1.35;;;6.20;99.90;;;;;;4992030;28;20046;-57
2024/02/17 08:36:39;;;;;;;5.35;1.23;;;6.10;99.90;;;;;;4989100;28;20120;-58
2024/02/17 08:39:05;;;;;;;5.18;1.25;;;6.20;99.90;;;;;;4990775;28;20030;-58
2024/02/17 08:41:31;;;;;;;8.80;1.90;;;6.20;99.90;;;;;;4988650;28;20057;-58
2024/02/17 08:43:56;;;;;;;8.18;1.42;;;6.20;99.90;;;;;;4987024;28;20148;-59
2024/02/17 08:46:22;;;;;;;7.07;1.40;;;6.20;99.90;;;;;;4992119;28;20592;-58
2024/02/17 08:48:47;;;;;;;9.35;2.15;;;6.20;99.90;;;;;;4970784;28;20025;-56
2024/02/17 08:51:13;;;;;;;5.95;1.95;;;6.20;99.90;;;;;;4992192;28;20458;-59
2024/02/17 08:53:38;;;;;;;13.40;2.28;;;6.20;99.90;;;;;;4988182;28;20022;-57
2024/02/17 08:56:04;;;;;;;6.20;1.92;;;6.30;99.90;;;;;;4989833;28;20622;-58
2024/02/17 08:58:30;;;;;;;10.63;2.00;;;6.30;99.90;;;;;;4986112;28;20018;-56
2024/02/17 09:00:57;;;;;;;9.10;2.17;;;6.30;99.90;;;;;;4974380;28;20037;-58
2024/02/17 09:03:23;;;;;;;9.25;2.03;;;6.30;99.90;;;;;;4987972;28;20022;-57
2024/02/17 09:05:49;;;;;;;7.80;2.45;;;6.40;99.90;;;;;;4986006;28;20109;-59
2024/02/17 09:08:14;;;;;;;8.48;2.28;;;6.30;99.90;;;;;;4991176;28;20506;-56
2024/02/17 09:10:40;;;;;;;6.00;1.92;;;6.40;99.90;;;;;;4989619;28;20029;-58
2024/02/17 09:13:05;;;;;;;10.23;2.30;;;6.40;99.90;;;;;;4988698;28;20022;-57
2024/02/17 09:15:31;;;;;;;6.63;1.75;;;6.30;99.90;;;;;;4968554;28;20525;-58
2024/02/17 09:17:57;;;;;;;8.70;2.03;;;6.40;99.90;;;;;;4989068;28;20398;-55
2024/02/17 09:20:23;;;;;;;11.32;1.58;;;6.40;99.90;;;;;;4985202;28;20045;-59
2024/02/17 09:22:48;;;;;;;5.53;1.83;;;6.40;99.90;;;;;;4985835;28;20034;-58
2024/02/17 09:25:14;;;;;;;8.43;1.55;;;6.40;99.90;;;;;;4986713;28;20062;-58
2024/02/17 09:27:40;;;;;;;10.32;2.15;;;6.40;99.90;;;;;;4991509;28;20037;-57
2024/02/17 09:30:07;;;;;;;8.13;1.65;;;6.50;99.90;;;;;;4987061;28;20106;-59
2024/02/17 09:32:32;;;;;;;11.25;1.77;;;6.50;99.90;;;;;;4988479;28;20041;-58
2024/02/17 09:34:58;;;;;;;6.55;1.75;;;6.50;99.90;;;;;;4990993;28;20021;-58
2024/02/17 09:37:23;;;;;;;10.60;2.00;;;6.50;99.90;;;;;;4985224;28;20046;-60
2024/02/17 09:39:49;;;;;;;10.32;2.20;;;6.50;99.90;;;;;;4986024;28;20159;-59
2024/02/17 09:42:15;;;;;;;8.18;2.05;;;6.50;99.90;;;;;;4987701;28;20066;-58
2024/02/17 09:44:41;;;;;;;10.15;1.88;;;6.50;99.90;;;;;;4989301;28;20030;-59
2024/02/17 09:47:06;;;;;;;5.97;1.63;;;6.50;99.90;;;;;;4989887;28;20034;-57
2024/02/17 09:49:36;;;;;;;9.60;2.08;;;6.50;99.90;;;;;;4988260;28;20076;-59
2024/02/17 09:52:02;;;;;;;11.75;2.13;;;6.60;99.90;;;;;;4986229;28;20019;-59
2024/02/17 09:54:28;;;;;;;9.35;1.90;;;6.60;99.90;;;;;;4987676;28;20046;-59
2024/02/17 09:56:54;;;;;;;12.82;2.17;;;6.60;99.90;;;;;;4985142;28;20069;-59
2024/02/17 09:59:20;;;;;;;11.25;1.80;;;6.70;99.90;;;;;;4983482;28;20057;-58
2024/02/17 10:01:46;;;;;;;9.45;2.35;;;6.80;99.90;;;;;;4984347;28;20139;-60
2024/02/17 10:04:12;;;;;;;9.95;2.17;;;6.80;99.90;;;;;;4982847;28;20402;-59
2024/02/17 10:06:38;;;;;;;12.30;1.98;;;6.80;99.90;;;;;;4988901;28;20022;-59
2024/02/17 10:09:04;;;;;;;8.68;2.13;;;6.90;99.90;;;;;;4985406;28;20489;-60
2024/02/17 10:11:33;;;;;;;10.07;1.92;;;6.90;99.90;;;;;;4989287;28;20456;-60
2024/02/17 10:14:00;;;;;;;10.82;2.60;;;7.00;99.90;;;;;;4986692;28;20534;-59
2024/02/17 10:16:29;;;;;;;13.82;2.53;;;7.00;99.90;;;;;;4983313;28;20498;-60
2024/02/17 10:19:03;;;;;;;10.77;1.73;;;7.00;99.90;;;;;;4986948;28;20023;-60
2024/02/17 10:21:28;;;;;;;8.55;1.95;;;7.00;99.90;;;;;;4983527;28;20088;-60
2024/02/17 10:23:54;;;;;;;5.53;1.70;;;7.00;99.90;;;;;;4993375;28;20041;-59
2024/02/17 10:26:20;;;;;;;12.90;2.58;;;7.20;99.90;;;;;;4990673;28;20053;-58
2024/02/17 10:28:55;;;;;;;10.30;1.75;;;7.30;99.90;;;;;;5001203;28;20041;-60
2024/02/17 10:31:21;;;;;;;9.52;2.50;;;7.50;99.90;;;;;;4994952;28;20026;-58
2024/02/17 10:33:48;;;;;;;14.38;3.05;;;7.30;99.90;;;;;;4993418;28;20026;-59
2024/02/17 10:36:16;;;;;;;9.13;2.50;;;7.10;99.90;;;;;;4996083;28;20018;-59
2024/02/17 10:38:42;;;;;;;10.18;2.33;;;7.10;99.90;;;;;;4993677;28;20022;-59
2024/02/17 10:41:08;;;;;;;8.93;1.95;;;7.00;99.90;;;;;;4993968;28;20037;-60
2024/02/17 10:43:38;;;;;;;11.77;2.88;;;7.00;99.90;;;;;;4993653;28;20057;-58
2024/02/17 10:46:12;;;;;;;7.55;2.45;;;7.10;99.90;;;;;;4998584;28;20018;-60
2024/02/17 10:48:41;;;;;;;6.60;2.40;;;7.10;99.90;;;;;;4996773;28;20068;-60
2024/02/17 10:51:07;;;;;;;6.53;1.98;;;7.20;99.90;;;;;;4997155;28;20105;-61
2024/02/17 10:53:42;;;;;;;16.38;3.15;;;7.30;99.90;;;;;;4999773;28;20117;-60
2024/02/17 10:56:15;;;;;;;9.88;2.25;;;7.40;99.90;;;;;;4982117;28;20022;-58
2024/02/17 10:58:41;;;;;;;9.13;3.00;;;7.50;99.90;;;;;;4998716;28;20065;-60
2024/02/17 11:01:09;;;;;;;9.73;2.20;;;7.50;99.90;;;;;;4996385;28;20081;-60
2024/02/17 11:03:37;;;;;;;7.43;1.88;;;7.50;99.90;;;;;;4998090;28;20038;-60
2024/02/17 11:06:06;;;;;;;10.98;2.10;;;7.30;99.90;;;;;;5001704;28;20477;-60
2024/02/17 11:08:33;;;;;;;7.88;2.33;;;7.20;99.90;;;;;;4998717;28;20033;-60
2024/02/17 11:11:25;;;;;;;5.95;2.28;;;7.20;99.90;;;;;;5001717;28;20030;-59
2024/02/17 11:13:52;;;;;;;9.85;1.67;;;7.10;99.90;;;;;;4996569;28;20018;-59
2024/02/17 11:16:19;;;;;;;13.05;2.78;;;7.00;99.90;;;;;;4991565;28;20441;-60
2024/02/17 11:18:54;;;;;;;3.47;1.42;;;7.10;99.90;;;;;;4981396;28;20689;-59
2024/02/17 11:21:30;;;;;;;11.27;1.95;;;7.20;99.90;;;;;;4993040;28;20084;-60
2024/02/17 11:24:00;;;;;;;15.88;2.83;;;7.20;99.90;;;;;;4986134;28;20042;-60
2024/02/17 11:26:26;;;;;;;11.18;2.65;;;7.20;99.90;;;;;;4992625;28;20038;-60
2024/02/17 11:28:52;;;;;;;14.07;2.80;;;7.20;99.90;;;;;;4995828;28;20076;-60
2024/02/17 11:31:18;;;;;;;10.68;2.38;;;7.20;99.90;;;;;;4990581;28;20255;-58
2024/02/17 11:33:48;;;;;;;12.05;2.15;;;7.20;99.90;;;;;;4990282;28;20046;-59
2024/02/17 11:36:15;;;;;;;8.77;2.80;;;7.30;99.90;;;;;;4989378;28;20027;-59
2024/02/17 11:38:42;;;;;;;10.50;2.35;;;7.30;99.90;;;;;;4993624;28;20068;-59
2024/02/17 11:41:12;;;;;;;7.40;2.47;;;7.20;99.90;;;;;;4988783;28;20493;-59
2024/02/17 11:43:37;;;;;;;10.23;2.00;;;7.20;99.90;;;;;;4983859;28;20034;-59
2024/02/17 11:46:04;;;;;;;12.63;1.92;;;7.20;99.90;;;;;;4986975;28;20031;-60
2024/02/17 11:48:31;;;;;;;6.07;1.80;;;7.20;99.90;;;;;;4993307;28;20389;-59
2024/02/17 11:51:26;;;;;;;13.63;1.98;;;7.20;99.90;;;;;;4993074;28;20023;-60
2024/02/17 11:53:51;;;;;;;12.40;2.55;;;7.20;99.90;;;;;;4983590;28;20101;-60
2024/02/17 11:56:17;;;;;;;9.65;2.20;;;7.20;99.90;;;;;;4988560;28;20590;-61
2024/02/17 11:58:45;;;;;;;6.93;1.67;;;7.20;99.90;;;;;;4989199;28;20034;-60
2024/02/17 12:01:13;;;;;;;14.40;2.85;;;7.30;99.90;;;;;;4992450;28;20030;-59
2024/02/17 12:03:38;;;;;;;9.25;2.53;;;7.30;99.90;;;;;;4985589;28;20032;-59
2024/02/17 12:06:06;;;;;;;9.73;2.20;;;7.50;99.90;;;;;;4990976;28;20034;-59
2024/02/17 12:08:32;;;;;;;6.85;2.42;;;7.50;99.90;;;;;;5021784;23;20044;-83
2024/02/17 12:10:58;;;;;;;15.23;3.17;;;7.50;99.90;;;;;;5056624;28;20029;-85
2024/02/17 12:13:24;;;;;;;12.23;2.30;;;7.50;99.90;;;;;;5056523;28;20032;-83
2024/02/17 12:15:51;;;;;;;12.30;2.55;;;7.40;99.90;;;;;;5055439;28;20053;-84
2024/02/17 12:18:17;;;;;;;9.55;1.92;;;7.50;99.90;;;;;;5038217;28;20037;-84
2024/02/17 12:20:43;;;;;;;11.68;2.47;;;7.50;99.90;;;;;;5056600;28;20072;-84
2024/02/17 12:23:10;;;;;;;9.48;1.95;;;7.50;99.90;;;;;;5034588;28;20025;-84
2024/02/17 12:25:37;;;;;;;14.65;3.20;;;7.50;99.90;;;;;;5035717;28;20036;-85
2024/02/17 12:28:04;;;;;;;16.83;3.15;;;7.40;99.90;;;;;;5036456;28;20021;-84
2024/02/17 12:30:32;;;;;;;10.68;2.45;;;7.50;99.90;;;;;;5035553;28;20021;-84
2024/02/17 12:33:11;;;;;;;9.40;1.83;;;7.40;99.90;;;;;;5035347;28;20022;-84
2024/02/17 12:35:45;;;;;;;15.20;2.35;;;7.40;99.90;;;;;;5034915;28;20375;-83
2024/02/17 12:38:11;;;;;;;9.60;1.83;;;7.30;99.90;;;;;;5033908;28;20029;-85
2024/02/17 12:40:36;;;;;;;6.57;1.77;;;7.30;99.90;;;;;;5034606;28;20026;-84
2024/02/17 12:43:03;;;;;;;11.02;2.28;;;7.30;99.90;;;;;;5037159;28;20563;-83
2024/02/17 12:45:32;;;;;;;8.57;2.15;;;7.40;99.90;;;;;;5035192;28;20026;-84
2024/02/17 12:47:59;;;;;;;21.77;3.72;;;7.40;99.90;;;;;;5034869;28;20022;-84
2024/02/17 12:50:25;;;;;;;27.80;5.57;;;7.40;99.90;;;;;;5033480;28;20065;-83
2024/02/17 12:52:51;;;;;;;20.58;2.80;;;7.40;99.90;;;;;;5034549;28;20029;-84